createdAt,value
2023-04-12T00:00:50.790Z,91454.47
2023-04-12T00:03:20.800Z,91455.22
2023-04-12T00:05:54.433Z,91449.72
2023-04-12T00:08:24.637Z,91444.44
2023-04-12T00:10:51.721Z,91447.34
2023-04-12T00:13:19.156Z,91444.63
2023-04-12T00:15:46.144Z,91435.63
2023-04-12T00:18:12.663Z,91434.91
2023-04-12T00:20:39.277Z,91432.16
2023-04-12T00:23:05.774Z,91419.91
2023-04-12T00:25:32.255Z,91421.34
2023-04-12T00:27:58.724Z,91416.97
2023-04-12T00:30:25.781Z,91415.69
2023-04-12T00:32:52.302Z,91414.22
2023-04-12T00:35:19.199Z,91418.41
2023-04-12T00:37:45.806Z,91416.97
2023-04-12T00:40:12.737Z,91406.00
2023-04-12T00:42:39.277Z,91402.50
2023-04-12T00:45:06.961Z,91402.31
2023-04-12T00:47:36.751Z,91401.56
2023-04-12T00:50:06.057Z,91401.56
2023-04-12T00:52:34.481Z,91403.06
2023-04-12T00:55:03.944Z,91396.09
2023-04-12T00:57:38.738Z,91389.16
2023-04-12T01:00:15.447Z,91382.91
2023-04-12T01:02:48.403Z,91381.47
2023-04-12T01:05:22.279Z,91359.31
2023-04-12T01:08:13.106Z,91349.28
2023-04-12T01:10:49.701Z,91371.97
2023-04-12T01:13:40.024Z,91364.81
2023-04-12T01:16:15.306Z,91361.31
2023-04-12T01:18:50.535Z,91341.97
2023-04-12T01:21:24.350Z,91349.63
2023-04-12T01:24:23.010Z,91358.41
2023-04-12T01:26:51.966Z,91339.41
2023-04-12T01:29:21.956Z,91348.34
2023-04-12T01:31:59.523Z,91336.84
2023-04-12T01:34:30.256Z,91340.66
2023-04-12T01:36:58.993Z,91352.19
2023-04-12T01:39:26.289Z,91345.06
2023-04-12T01:41:52.963Z,91352.94
2023-04-12T01:44:19.769Z,91345.25
2023-04-12T01:46:48.079Z,91332.09
2023-04-12T01:49:17.603Z,91329.16
2023-04-12T01:51:53.066Z,91354.00
2023-04-12T01:54:27.471Z,91329.34
2023-04-12T01:57:02.538Z,91335.38
2023-04-12T01:59:34.892Z,91326.94
2023-04-12T02:02:03.198Z,91327.88
2023-04-12T02:04:30.516Z,91345.59
2023-04-12T02:06:57.501Z,91341.03
2023-04-12T02:09:24.105Z,91329.16
2023-04-12T02:11:50.767Z,91345.97
2023-04-12T02:14:17.612Z,91340.84
2023-04-12T02:16:44.848Z,91354.56
2023-04-12T02:19:12.540Z,91346.72
2023-04-12T02:21:43.711Z,91338.28
2023-04-12T02:24:11.782Z,91355.31
2023-04-12T02:26:38.773Z,91355.88
2023-04-12T02:29:09.176Z,91354.56
2023-04-12T02:31:36.947Z,91340.47
2023-04-12T02:34:03.604Z,91332.09
2023-04-12T02:36:30.230Z,91322.00
2023-04-12T02:38:56.890Z,91339.03
2023-04-12T02:41:24.787Z,91336.47
2023-04-12T02:43:51.825Z,91340.47
2023-04-12T02:46:27.566Z,91328.06
2023-04-12T02:48:54.218Z,91336.66
2023-04-12T02:51:20.823Z,91318.19
2023-04-12T02:53:47.479Z,91327.13
2023-04-12T02:56:14.119Z,91318.16
2023-04-12T02:58:40.801Z,91314.53
2023-04-12T03:01:13.212Z,91315.97
2023-04-12T03:03:40.696Z,91312.31
2023-04-12T03:06:09.281Z,91315.97
2023-04-12T03:08:36.348Z,91321.63
2023-04-12T03:11:03.055Z,91307.56
2023-04-12T03:13:29.605Z,91308.28
2023-04-12T03:16:00.015Z,91323.81
2023-04-12T03:18:26.823Z,91292.94
2023-04-12T03:20:53.501Z,91306.84
2023-04-12T03:23:20.659Z,91311.22
2023-04-12T03:25:47.337Z,91302.63
2023-04-12T03:28:13.940Z,91295.88
2023-04-12T03:30:40.943Z,91303.19
2023-04-12T03:33:07.987Z,91294.75
2023-04-12T03:35:34.788Z,91304.81
2023-04-12T03:38:01.473Z,91300.63
2023-04-12T03:40:28.072Z,91286.00
2023-04-12T03:42:54.717Z,91307.91
2023-04-12T03:45:21.502Z,91281.59
2023-04-12T03:47:48.262Z,91280.16
2023-04-12T03:50:15.089Z,91283.59
2023-04-12T03:52:41.734Z,91297.69
2023-04-12T03:55:08.883Z,91292.75
2023-04-12T03:57:36.093Z,91277.59
2023-04-12T04:00:03.041Z,91288.56
2023-04-12T04:02:31.947Z,91292.94
2023-04-12T04:04:58.981Z,91269.34
2023-04-12T04:07:25.837Z,91283.59
2023-04-12T04:09:54.578Z,91272.81
2023-04-12T04:12:21.223Z,91268.44
2023-04-12T04:14:47.814Z,91274.63
2023-04-12T04:17:14.449Z,91274.97
2023-04-12T04:19:41.909Z,91254.16
2023-04-12T04:22:10.158Z,91254.88
2023-04-12T04:24:39.121Z,91255.97
2023-04-12T04:27:06.407Z,91246.66
2023-04-12T04:29:33.827Z,91253.75
2023-04-12T04:32:00.629Z,91231.84
2023-04-12T04:34:27.449Z,91235.13
2023-04-12T04:36:54.021Z,91230.19
2023-04-12T04:39:20.878Z,91243.91
2023-04-12T04:41:54.632Z,91227.63
2023-04-12T04:44:21.995Z,91229.25
2023-04-12T04:46:49.164Z,91241.69
2023-04-12T04:49:16.181Z,91238.59
2023-04-12T04:51:42.713Z,91246.47
2023-04-12T04:54:09.276Z,91242.44
2023-04-12T04:56:35.853Z,91243.72
2023-04-12T04:59:02.756Z,91235.50
2023-04-12T05:01:29.680Z,91241.34
2023-04-12T05:03:56.440Z,91242.44
2023-04-12T05:06:23.405Z,91251.22
2023-04-12T05:08:50.083Z,91246.84
2023-04-12T05:11:16.753Z,91242.44
2023-04-12T05:13:43.282Z,91245.38
2023-04-12T05:16:11.446Z,91233.31
2023-04-12T05:18:38.263Z,91238.06
2023-04-12T05:21:05.478Z,91232.94
2023-04-12T05:23:39.612Z,91243.91
2023-04-12T05:26:06.659Z,91237.50
2023-04-12T05:28:33.273Z,91239.84
2023-04-12T05:31:00.012Z,91233.31
2023-04-12T05:33:26.530Z,91225.81
2023-04-12T05:35:53.079Z,91231.47
2023-04-12T05:38:19.797Z,91228.91
2023-04-12T05:40:46.447Z,91223.06
2023-04-12T05:43:13.207Z,91226.34
2023-04-12T05:45:41.309Z,91213.72
2023-04-12T05:48:08.545Z,91216.13
2023-04-12T05:50:35.778Z,91210.44
2023-04-12T05:53:02.507Z,91216.47
2023-04-12T05:55:30.057Z,91213.91
2023-04-12T05:57:58.554Z,91214.84
2023-04-12T06:00:26.383Z,91212.63
2023-04-12T06:02:53.267Z,91195.25
2023-04-12T06:05:20.076Z,91211.34
2023-04-12T06:07:49.749Z,91218.28
2023-04-12T06:10:17.560Z,91216.09
2023-04-12T06:12:45.029Z,91208.41
2023-04-12T06:15:11.818Z,91200.38
2023-04-12T06:17:38.638Z,91208.97
2023-04-12T06:20:08.427Z,91195.63
2023-04-12T06:22:35.560Z,91207.13
2023-04-12T06:25:02.395Z,91216.09
2023-04-12T06:27:28.957Z,91212.06
2023-04-12T06:29:55.646Z,91212.78
2023-04-12T06:32:22.889Z,91200.75
2023-04-12T06:34:49.528Z,91209.88
2023-04-12T06:37:16.388Z,91204.03
2023-04-12T06:39:43.041Z,91206.94
2023-04-12T06:42:09.604Z,91203.13
2023-04-12T06:44:36.174Z,91195.63
2023-04-12T06:47:02.789Z,91207.69
2023-04-12T06:49:29.545Z,91204.94
2023-04-12T06:51:56.083Z,91198.53
2023-04-12T06:54:24.039Z,91197.44
2023-04-12T06:56:50.645Z,91193.22
2023-04-12T06:59:17.761Z,91187.03
2023-04-12T07:01:44.642Z,91187.41
2023-04-12T07:04:12.145Z,91177.69
2023-04-12T07:06:38.986Z,91164.91
2023-04-12T07:09:06.016Z,91172.59
2023-04-12T07:11:32.593Z,91169.28
2023-04-12T07:13:59.229Z,91163.63
2023-04-12T07:16:25.968Z,91156.50
2023-04-12T07:18:52.512Z,91161.63
2023-04-12T07:21:19.093Z,91161.63
2023-04-12T07:23:46.909Z,91164.91
2023-04-12T07:26:13.488Z,91158.31
2023-04-12T07:28:40.070Z,91159.97
2023-04-12T07:31:07.468Z,91146.28
2023-04-12T07:33:39.389Z,91157.22
2023-04-12T07:36:07.866Z,91162.16
2023-04-12T07:38:34.455Z,91160.84
2023-04-12T07:41:01.010Z,91157.03
2023-04-12T07:43:27.711Z,91160.88
2023-04-12T07:45:57.675Z,91164.16
2023-04-12T07:48:24.285Z,91163.78
2023-04-12T07:50:51.437Z,91158.66
2023-04-12T07:53:23.308Z,91165.59
2023-04-12T07:55:51.135Z,91157.56
2023-04-12T07:58:19.370Z,91163.41
2023-04-12T08:00:46.800Z,91149.91
2023-04-12T08:03:15.092Z,91155.75
2023-04-12T08:05:42.246Z,91154.13
2023-04-12T08:08:12.264Z,91142.97
2023-04-12T08:10:39.766Z,91144.03
2023-04-12T08:13:07.114Z,91136.00
2023-04-12T08:15:33.867Z,91142.03
2023-04-12T08:18:01.088Z,91132.34
2023-04-12T08:20:27.788Z,91147.88
2023-04-12T08:22:54.817Z,91132.53
2023-04-12T08:25:22.184Z,91142.19
2023-04-12T08:27:50.369Z,91136.13
2023-04-12T08:30:17.710Z,91129.69
2023-04-12T08:32:44.352Z,91127.13
2023-04-12T08:35:11.496Z,91113.63
2023-04-12T08:37:38.118Z,91119.84
2023-04-12T08:40:07.312Z,91122.94
2023-04-12T08:42:38.195Z,91117.28
2023-04-12T08:45:09.448Z,91121.53
2023-04-12T08:47:38.991Z,91125.94
2023-04-12T08:50:10.767Z,91117.19
2023-04-12T08:52:38.227Z,91119.75
2023-04-12T08:55:08.953Z,91104.41
2023-04-12T08:57:37.017Z,91105.13
2023-04-12T09:00:05.044Z,91099.09
2023-04-12T09:02:31.793Z,91093.78
2023-04-12T09:04:58.916Z,91094.34
2023-04-12T09:07:30.337Z,91083.88
2023-04-12T09:09:58.626Z,91086.13
2023-04-12T09:12:27.241Z,91083.88
2023-04-12T09:15:12.660Z,91074.38
2023-04-12T09:17:41.450Z,91057.38
2023-04-12T09:20:17.403Z,91052.06
2023-04-12T09:22:46.515Z,91050.44
2023-04-12T09:25:15.708Z,91042.03
2023-04-12T09:27:46.997Z,91033.81
2023-04-12T09:30:14.539Z,91042.56
2023-04-12T09:32:41.255Z,91037.06
2023-04-12T09:35:08.779Z,91017.69
2023-04-12T09:37:35.362Z,91023.34
2023-04-12T09:40:07.249Z,91031.34
2023-04-12T09:42:35.178Z,91016.16
2023-04-12T09:45:20.261Z,91014.34
2023-04-12T09:47:47.252Z,91012.50
2023-04-12T09:50:24.817Z,90994.44
2023-04-12T09:52:53.360Z,91003.19
2023-04-12T09:55:22.308Z,90992.41
2023-04-12T09:57:52.563Z,90988.88
2023-04-12T10:00:22.504Z,90981.06
2023-04-12T10:02:52.090Z,90971.50
2023-04-12T10:05:22.273Z,90971.84
2023-04-12T10:07:50.141Z,90949.38
2023-04-12T10:10:18.569Z,90953.59
2023-04-12T10:12:47.322Z,90951.34
2023-04-12T10:15:18.724Z,90952.13
2023-04-12T10:17:52.115Z,90946.63
2023-04-12T10:20:20.573Z,90934.22
2023-04-12T10:22:52.390Z,90927.28
2023-04-12T10:25:21.682Z,90930.50
2023-04-12T10:27:49.373Z,90910.81
2023-04-12T10:30:30.628Z,90908.06
2023-04-12T10:33:03.617Z,90914.38
2023-04-12T10:35:48.730Z,90899.34
2023-04-12T10:38:16.839Z,90894.66
2023-04-12T10:41:11.495Z,90895.31
2023-04-12T10:43:38.540Z,90875.44
2023-04-12T10:46:06.877Z,90877.56
2023-04-12T10:48:36.170Z,90858.75
2023-04-12T10:51:25.054Z,90865.13
2023-04-12T10:53:52.948Z,90865.75
2023-04-12T10:56:32.713Z,90849.47
2023-04-12T10:59:01.627Z,90840.88
2023-04-12T11:01:29.285Z,90823.72
2023-04-12T11:04:25.945Z,90828.16
2023-04-12T11:06:53.392Z,90813.13
2023-04-12T11:09:25.251Z,90816.03
2023-04-12T11:11:57.242Z,90809.97
2023-04-12T11:14:29.945Z,90795.50
2023-04-12T11:17:05.977Z,90792.91
2023-04-12T11:19:33.434Z,90781.22
2023-04-12T11:22:10.813Z,90760.44
2023-04-12T11:24:43.551Z,90783.16
2023-04-12T11:27:10.809Z,90761.72
2023-04-12T11:29:37.332Z,90756.53
2023-04-12T11:32:05.951Z,90756.88
2023-04-12T11:34:34.097Z,90759.63
2023-04-12T11:37:01.178Z,90735.00
2023-04-12T11:39:31.178Z,90740.06
2023-04-12T11:41:58.631Z,90757.19
2023-04-12T11:44:25.662Z,90757.34
2023-04-12T11:46:52.305Z,90737.81
2023-04-12T11:49:20.879Z,90716.53
2023-04-12T11:51:49.499Z,90732.63
2023-04-12T11:54:16.508Z,90723.06
2023-04-12T11:56:43.144Z,90724.84
2023-04-12T11:59:09.771Z,90718.06
2023-04-12T12:01:37.917Z,90713.13
2023-04-12T12:04:05.540Z,90713.84
2023-04-12T12:06:32.802Z,90707.38
2023-04-12T12:08:59.759Z,90708.50
2023-04-12T12:11:27.240Z,90709.94
2023-04-12T12:13:55.349Z,90707.38
2023-04-12T12:16:30.220Z,90690.44
2023-04-12T12:18:57.477Z,90702.03
2023-04-12T12:21:26.270Z,90693.34
2023-04-12T12:23:52.985Z,90673.53
2023-04-12T12:26:26.488Z,90676.31
2023-04-12T12:28:56.281Z,90661.00
2023-04-12T12:31:30.836Z,90676.22
2023-04-12T12:33:59.389Z,90661.19
2023-04-12T12:36:33.691Z,90664.06
2023-04-12T12:39:11.814Z,90661.91
2023-04-12T12:41:39.586Z,90645.41
2023-04-12T12:44:07.228Z,90650.78
2023-04-12T12:49:03.498Z,90641.13
2023-04-12T12:51:31.513Z,90640.53
2023-04-12T12:53:58.233Z,90623.91
2023-04-12T12:56:25.094Z,90637.34
2023-04-12T12:58:51.614Z,90623.47
2023-04-12T13:01:18.179Z,90610.88
2023-04-12T13:03:44.890Z,90618.25
2023-04-12T13:06:11.555Z,90611.03
2023-04-12T13:08:38.138Z,90611.31
2023-04-12T13:11:04.950Z,90616.81
2023-04-12T13:13:32.534Z,90605.41
2023-04-12T13:15:59.071Z,90620.00
2023-04-12T13:18:25.660Z,90613.06
2023-04-12T13:20:52.551Z,90609.88
2023-04-12T13:23:19.097Z,90621.47
2023-04-12T13:25:45.591Z,90608.72
2023-04-12T13:28:12.917Z,90602.81
2023-04-12T13:30:39.495Z,90600.34
2023-04-12T13:33:06.104Z,90603.22
2023-04-12T13:35:32.643Z,90593.38
2023-04-12T13:37:59.170Z,90598.00
2023-04-12T13:40:25.716Z,90591.06
2023-04-12T13:42:52.241Z,90572.84
2023-04-12T13:45:18.765Z,90564.44
2023-04-12T13:47:45.569Z,90565.31
2023-04-12T13:50:12.144Z,90543.75
2023-04-12T13:52:39.336Z,90555.78
2023-04-12T13:55:08.294Z,90545.91
2023-04-12T13:57:35.708Z,90532.31
2023-04-12T14:00:02.455Z,90538.13
2023-04-12T14:02:31.207Z,90532.47
2023-04-12T14:04:58.439Z,90528.69
2023-04-12T14:07:25.054Z,90521.63
2023-04-12T14:09:51.648Z,90519.00
2023-04-12T14:12:18.162Z,90513.06
2023-04-12T14:14:44.771Z,90511.63
2023-04-12T14:17:11.512Z,90512.34
2023-04-12T14:19:38.342Z,90513.81
2023-04-12T14:22:04.992Z,90508.31
2023-04-12T14:24:31.818Z,90501.06
2023-04-12T14:26:59.465Z,90498.31
2023-04-12T14:29:26.806Z,90505.13
2023-04-12T14:31:53.344Z,90508.44
2023-04-12T14:34:20.098Z,90500.34
2023-04-12T14:36:46.673Z,90493.53
2023-04-12T14:39:14.191Z,90492.25
2023-04-12T14:41:42.278Z,90487.00
2023-04-12T14:44:08.979Z,90486.72
2023-04-12T14:46:35.894Z,90464.31
2023-04-12T14:49:02.619Z,90483.38
2023-04-12T14:51:29.462Z,90481.38
2023-04-12T14:53:56.686Z,90472.53
2023-04-12T14:56:28.166Z,90457.63
2023-04-12T14:58:56.083Z,90467.47
2023-04-12T15:01:23.781Z,90471.78
2023-04-12T15:03:51.949Z,90471.38
2023-04-12T15:06:20.549Z,90465.88
2023-04-12T15:08:49.410Z,90458.78
2023-04-12T15:11:19.263Z,90459.38
2023-04-12T15:13:45.864Z,90456.75
2023-04-12T15:16:12.525Z,90448.50
2023-04-12T15:18:41.550Z,90450.22
2023-04-12T15:21:09.702Z,90453.13
2023-04-12T15:23:37.196Z,90459.94
2023-04-12T15:26:06.522Z,90460.06
2023-04-12T15:28:33.595Z,90458.78
2023-04-12T15:31:01.022Z,90459.06
2023-04-12T15:33:28.215Z,90450.09
2023-04-12T15:35:57.838Z,90448.63
2023-04-12T15:38:25.071Z,90439.38
2023-04-12T15:40:56.500Z,90457.00
2023-04-12T15:43:24.040Z,90450.38
2023-04-12T15:45:54.433Z,90442.13
2023-04-12T15:48:23.259Z,90455.44
2023-04-12T15:50:50.558Z,90453.25
2023-04-12T15:53:21.588Z,90467.16
2023-04-12T15:55:48.784Z,90474.09
2023-04-12T15:58:15.524Z,90469.91
2023-04-12T16:00:42.448Z,90465.44
2023-04-12T16:03:09.331Z,90479.16
2023-04-12T16:05:36.812Z,90489.44
2023-04-12T16:08:03.906Z,90471.50
2023-04-12T16:10:32.082Z,90478.44
2023-04-12T16:12:59.314Z,90474.09
2023-04-12T16:15:25.881Z,90459.06
2023-04-12T16:18:12.720Z,90468.88
2023-04-12T16:20:40.843Z,90477.28
2023-04-12T16:23:08.108Z,90466.97
2023-04-12T16:25:37.766Z,90446.44
2023-04-12T16:28:05.260Z,90445.16
2023-04-12T16:30:32.557Z,90469.19
2023-04-12T16:32:59.629Z,90459.59
2023-04-12T16:35:26.915Z,90460.34
2023-04-12T16:37:54.539Z,90458.03
2023-04-12T16:40:22.364Z,90458.16
2023-04-12T16:42:49.178Z,90452.66
2023-04-12T16:45:29.380Z,90440.19
2023-04-12T16:48:01.809Z,90445.41
2023-04-12T16:50:46.343Z,90439.91
2023-04-12T16:53:36.524Z,90450.31
2023-04-12T16:56:35.871Z,90438.47
2023-04-12T16:59:16.271Z,90424.19
2023-04-12T17:04:44.744Z,90460.34
2023-04-12T17:07:14.249Z,90436.75
2023-04-12T17:09:52.208Z,90429.41
2023-04-12T17:12:56.364Z,90432.44
2023-04-12T17:15:36.377Z,90426.34
2023-04-12T17:18:14.374Z,90423.75
2023-04-12T17:20:46.566Z,90437.75
2023-04-12T17:23:13.701Z,90419.97
2023-04-12T17:25:41.773Z,90414.19
2023-04-12T17:28:08.899Z,90410.13
2023-04-12T17:30:35.591Z,90408.69
2023-04-12T17:33:18.246Z,90419.69
2023-04-12T17:35:48.279Z,90411.19
2023-04-12T17:38:15.138Z,90414.38
2023-04-12T17:40:51.933Z,90433.28
2023-04-12T17:43:24.962Z,90413.78
2023-04-12T17:45:54.408Z,90423.34
2023-04-12T17:48:24.284Z,90431.56
2023-04-12T17:50:57.238Z,90441.13
2023-04-12T17:53:26.683Z,90435.50
2023-04-12T17:56:04.717Z,90438.84
2023-04-12T17:58:35.758Z,90445.78
2023-04-12T18:01:15.170Z,90435.94
2023-04-12T18:03:42.577Z,90431.59
2023-04-12T18:06:09.309Z,90457.63
2023-04-12T18:08:37.649Z,90455.19
2023-04-12T18:11:06.591Z,90463.72
2023-04-12T18:13:33.225Z,90465.75
2023-04-12T18:16:00.065Z,90464.44
2023-04-12T18:18:26.675Z,90459.81
2023-04-12T18:20:53.240Z,90465.44
2023-04-12T18:23:19.798Z,90451.28
2023-04-12T18:25:46.447Z,90464.03
2023-04-12T18:28:13.068Z,90471.81
2023-04-12T18:30:39.602Z,90471.69
2023-04-12T18:33:08.212Z,90471.97
2023-04-12T18:35:35.101Z,90477.63
2023-04-12T18:38:01.803Z,90485.44
2023-04-12T18:40:28.699Z,90496.72
2023-04-12T18:42:55.306Z,90502.22
2023-04-12T18:45:22.855Z,90486.59
2023-04-12T18:47:51.472Z,90492.25
2023-04-12T18:50:19.681Z,90485.16
2023-04-12T18:52:46.240Z,90496.72
2023-04-12T18:55:13.398Z,90496.00
2023-04-12T18:57:40.342Z,90495.13
2023-04-12T19:00:13.660Z,90493.41
2023-04-12T19:02:41.256Z,90492.38
2023-04-12T19:05:10.360Z,90474.31
2023-04-12T19:07:37.428Z,90490.22
2023-04-12T19:10:04.716Z,90486.59
2023-04-12T19:12:31.769Z,90476.63
2023-04-12T19:14:58.402Z,90488.91
2023-04-12T19:17:27.872Z,90482.69
2023-04-12T19:19:54.989Z,90486.31
2023-04-12T19:22:21.700Z,90472.41
2023-04-12T19:24:49.946Z,90491.38
2023-04-12T19:27:16.839Z,90491.94
2023-04-12T19:29:44.110Z,90487.03
2023-04-12T19:32:13.620Z,90481.97
2023-04-12T19:34:41.799Z,90487.91
2023-04-12T19:37:08.689Z,90501.06
2023-04-12T19:39:36.204Z,90491.53
2023-04-12T19:42:03.443Z,90498.16
2023-04-12T19:44:30.145Z,90495.56
2023-04-12T19:46:56.724Z,90494.13
2023-04-12T19:49:24.019Z,90502.38
2023-04-12T19:51:53.407Z,90499.63
2023-04-12T19:54:23.624Z,90513.09
2023-04-12T19:56:50.484Z,90520.16
2023-04-12T19:59:17.917Z,90508.72
2023-04-12T20:01:50.607Z,90496.88
2023-04-12T20:04:21.704Z,90487.16
2023-04-12T20:06:50.486Z,90511.91
2023-04-12T20:09:17.339Z,90515.41
2023-04-12T20:11:44.083Z,90514.97
2023-04-12T20:14:10.737Z,90505.69
2023-04-12T20:16:38.356Z,90500.19
2023-04-12T20:19:05.249Z,90506.72
2023-04-12T20:21:34.153Z,90515.25
2023-04-12T20:24:04.113Z,90516.69
2023-04-12T20:26:34.028Z,90525.09
2023-04-12T20:29:01.021Z,90512.78
2023-04-12T20:31:28.459Z,90511.91
2023-04-12T20:33:56.356Z,90518.28
2023-04-12T20:36:23.727Z,90505.84
2023-04-12T20:38:50.932Z,90522.78
2023-04-12T20:41:17.727Z,90512.66
2023-04-12T20:43:47.490Z,90501.50
2023-04-12T20:46:17.088Z,90497.31
2023-04-12T20:48:44.609Z,90509.75
2023-04-12T20:51:11.877Z,90506.28
2023-04-12T20:53:38.654Z,90497.03
2023-04-12T20:56:06.582Z,90515.25
2023-04-12T20:58:35.063Z,90519.59
2023-04-12T21:01:04.995Z,90525.22
2023-04-12T21:03:38.479Z,90525.66
2023-04-12T21:06:06.849Z,90527.81
2023-04-12T21:08:36.270Z,90543.44
2023-04-12T21:11:03.192Z,90548.69
2023-04-12T21:13:30.528Z,90538.53
2023-04-12T21:15:58.731Z,90553.44
2023-04-12T21:18:25.414Z,90560.09
2023-04-12T21:20:52.141Z,90567.91
2023-04-12T21:23:18.738Z,90566.59
2023-04-12T21:25:48.463Z,90574.00
2023-04-12T21:28:15.249Z,90579.50
2023-04-12T21:30:42.199Z,90570.81
2023-04-12T21:33:08.793Z,90595.13
2023-04-12T21:35:35.500Z,90613.91
2023-04-12T21:38:02.137Z,90598.53
2023-04-12T21:40:28.779Z,90602.44
2023-04-12T21:42:55.447Z,90611.84
2023-04-12T21:45:22.173Z,90643.81
2023-04-12T21:47:49.107Z,90649.00
2023-04-12T21:50:15.796Z,90659.69
2023-04-12T21:52:44.078Z,90667.22
2023-04-12T21:55:10.788Z,90681.97
2023-04-12T21:57:37.439Z,90685.56
2023-04-12T22:00:05.872Z,90699.78
2023-04-12T22:02:32.767Z,90699.19
2023-04-12T22:04:59.530Z,90702.69
2023-04-12T22:07:26.766Z,90689.91
2023-04-12T22:09:58.101Z,90687.03
2023-04-12T22:12:25.710Z,90702.38
2023-04-12T22:14:52.464Z,90708.16
2023-04-12T22:17:22.382Z,90710.34
2023-04-12T22:19:49.090Z,90709.63
2023-04-12T22:22:16.181Z,90702.03
2023-04-12T22:24:44.141Z,90711.88
2023-04-12T22:27:10.769Z,90720.75
2023-04-12T22:29:37.815Z,90717.38
2023-04-12T22:32:04.847Z,90712.94
2023-04-12T22:34:32.510Z,90719.16
2023-04-12T22:36:59.141Z,90712.19
2023-04-12T22:39:26.658Z,90726.09
2023-04-12T22:41:53.640Z,90722.16
2023-04-12T22:44:23.525Z,90730.56
2023-04-12T22:46:54.364Z,90737.03
2023-04-12T22:49:28.226Z,90751.41
2023-04-12T22:51:55.817Z,90740.84
2023-04-12T22:54:23.884Z,90743.41
2023-04-12T22:56:50.901Z,90745.19
2023-04-12T22:59:19.999Z,90738.25
2023-04-12T23:01:47.466Z,90728.09
2023-04-12T23:04:15.725Z,90738.66
2023-04-12T23:06:43.502Z,90737.59
2023-04-12T23:09:11.754Z,90735.34
2023-04-12T23:11:40.266Z,90736.22
2023-04-12T23:14:08.322Z,90747.75
2023-04-12T23:16:35.460Z,90749.22
2023-04-12T23:19:03.994Z,90747.59
2023-04-12T23:21:30.773Z,90746.31
2023-04-12T23:23:57.531Z,90744.88
2023-04-12T23:26:24.709Z,90741.81
2023-04-12T23:28:51.658Z,90748.91
2023-04-12T23:31:18.477Z,90742.06
2023-04-12T23:33:46.065Z,90737.59
2023-04-12T23:36:13.188Z,90733.97
2023-04-12T23:38:40.730Z,90737.94
2023-04-12T23:41:10.137Z,90729.25
2023-04-12T23:43:37.035Z,90720.53
2023-04-12T23:46:04.537Z,90716.91
2023-04-12T23:48:34.811Z,90728.38
2023-04-12T23:51:01.358Z,90717.25
2023-04-12T23:53:27.989Z,90722.59
2023-04-12T23:55:54.734Z,90716.09
2023-04-12T23:58:21.705Z,90714.78
